Beaumaris, United Kingdom
Current Conditions -  °F | °C
As of 5:50 PM on Wednesday 28 Jan 2015 (Local Time) from EGOV Reporting Station
Scattered Clouds Scattered Clouds  
Wind Chill: 30°   Ceiling: Unl
Heat Index: 41°   Visibility: 6mi
Dew Point: 28°   Wind: 29mph
Humidity: 61%   Direction: 260°W
Pressure: 29.53"   Gusts: NA
Location:  53.26°N, 4.09°W
Report Text: EGOV 281750Z 26025KT 9999 FEW029 SCT058 05/M02 Q1000 BLU NOSIG
Loading
Personal Weather Stations






























Interactive Weather Map New forecast layout! Learn more

10-Day Weather Forecast

Advertisements
Track Severe Weather on mobile